sensor_id;sensor_type;location;lat;lon;timestamp;P1;durP1;ratioP1;P2;durP2;ratioP2
6999;SDS011;3540;53.242;10.408;2023-08-30T00:00:43;3.50;;;2.47;;
6999;SDS011;3540;53.242;10.408;2023-08-30T00:03:10;6.23;;;2.47;;
6999;SDS011;3540;53.242;10.408;2023-08-30T00:05:38;2.63;;;2.43;;
6999;SDS011;3540;53.242;10.408;2023-08-30T00:08:05;4.17;;;2.30;;
6999;SDS011;3540;53.242;10.408;2023-08-30T00:10:30;4.07;;;2.40;;
6999;SDS011;3540;53.242;10.408;2023-08-30T00:12:56;4.23;;;2.50;;
6999;SDS011;3540;53.242;10.408;2023-08-30T00:15:22;4.37;;;2.60;;
6999;SDS011;3540;53.242;10.408;2023-08-30T00:17:47;4.97;;;2.17;;
6999;SDS011;3540;53.242;10.408;2023-08-30T00:20:13;2.73;;;2.43;;
6999;SDS011;3540;53.242;10.408;2023-08-30T00:22:39;3.57;;;2.50;;
6999;SDS011;3540;53.242;10.408;2023-08-30T00:25:04;3.43;;;2.40;;
6999;SDS011;3540;53.242;10.408;2023-08-30T00:27:30;3.90;;;2.20;;
6999;SDS011;3540;53.242;10.408;2023-08-30T00:29:56;3.70;;;2.27;;
6999;SDS011;3540;53.242;10.408;2023-08-30T00:32:21;4.30;;;2.80;;
6999;SDS011;3540;53.242;10.408;2023-08-30T00:34:50;2.63;;;2.30;;
6999;SDS011;3540;53.242;10.408;2023-08-30T00:37:16;2.57;;;2.37;;
6999;SDS011;3540;53.242;10.408;2023-08-30T00:39:42;2.97;;;2.37;;
6999;SDS011;3540;53.242;10.408;2023-08-30T00:42:08;2.77;;;2.50;;
6999;SDS011;3540;53.242;10.408;2023-08-30T00:44:34;2.93;;;2.60;;
6999;SDS011;3540;53.242;10.408;2023-08-30T00:47:00;4.70;;;2.53;;
6999;SDS011;3540;53.242;10.408;2023-08-30T00:49:28;7.60;;;2.37;;
6999;SDS011;3540;53.242;10.408;2023-08-30T00:51:55;3.97;;;2.60;;
6999;SDS011;3540;53.242;10.408;2023-08-30T00:54:22;3.07;;;2.60;;
6999;SDS011;3540;53.242;10.408;2023-08-30T00:56:48;5.43;;;2.53;;
6999;SDS011;3540;53.242;10.408;2023-08-30T00:59:15;5.30;;;2.77;;
6999;SDS011;3540;53.242;10.408;2023-08-30T01:01:41;5.97;;;2.53;;
6999;SDS011;3540;53.242;10.408;2023-08-30T01:04:07;2.73;;;2.47;;
6999;SDS011;3540;53.242;10.408;2023-08-30T01:06:33;5.93;;;3.03;;
6999;SDS011;3540;53.242;10.408;2023-08-30T01:09:00;3.10;;;2.43;;
6999;SDS011;3540;53.242;10.408;2023-08-30T01:14:14;5.73;;;2.53;;
6999;SDS011;3540;53.242;10.408;2023-08-30T01:16:43;5.77;;;2.70;;
6999;SDS011;3540;53.242;10.408;2023-08-30T01:21:58;4.57;;;2.50;;
6999;SDS011;3540;53.242;10.408;2023-08-30T01:27:30;4.73;;;2.77;;
6999;SDS011;3540;53.242;10.408;2023-08-30T01:29:59;3.67;;;2.70;;
6999;SDS011;3540;53.242;10.408;2023-08-30T01:32:28;5.37;;;2.53;;
6999;SDS011;3540;53.242;10.408;2023-08-30T01:34:55;3.40;;;2.57;;
6999;SDS011;3540;53.242;10.408;2023-08-30T01:37:22;3.67;;;2.70;;
6999;SDS011;3540;53.242;10.408;2023-08-30T01:39:49;5.67;;;2.90;;
6999;SDS011;3540;53.242;10.408;2023-08-30T01:42:16;3.67;;;2.53;;
6999;SDS011;3540;53.242;10.408;2023-08-30T01:44:46;5.30;;;2.90;;
6999;SDS011;3540;53.242;10.408;2023-08-30T01:47:14;3.23;;;2.77;;
6999;SDS011;3540;53.242;10.408;2023-08-30T01:49:41;3.77;;;2.50;;
6999;SDS011;3540;53.242;10.408;2023-08-30T01:52:08;5.07;;;2.93;;
6999;SDS011;3540;53.242;10.408;2023-08-30T01:54:35;5.00;;;2.50;;
6999;SDS011;3540;53.242;10.408;2023-08-30T01:57:02;3.20;;;2.83;;
6999;SDS011;3540;53.242;10.408;2023-08-30T01:59:29;5.70;;;2.50;;
6999;SDS011;3540;53.242;10.408;2023-08-30T02:01:54;4.33;;;2.90;;
6999;SDS011;3540;53.242;10.408;2023-08-30T02:04:21;3.27;;;2.33;;
6999;SDS011;3540;53.242;10.408;2023-08-30T02:06:53;3.00;;;2.53;;
6999;SDS011;3540;53.242;10.408;2023-08-30T02:09:28;2.70;;;2.37;;
6999;SDS011;3540;53.242;10.408;2023-08-30T02:12:00;5.13;;;2.83;;
6999;SDS011;3540;53.242;10.408;2023-08-30T02:14:32;4.20;;;2.90;;
6999;SDS011;3540;53.242;10.408;2023-08-30T02:16:58;3.73;;;2.77;;
6999;SDS011;3540;53.242;10.408;2023-08-30T02:19:24;4.03;;;2.60;;
6999;SDS011;3540;53.242;10.408;2023-08-30T02:21:51;4.43;;;2.70;;
6999;SDS011;3540;53.242;10.408;2023-08-30T02:24:16;4.77;;;2.90;;
6999;SDS011;3540;53.242;10.408;2023-08-30T02:26:42;3.67;;;2.90;;
6999;SDS011;3540;53.242;10.408;2023-08-30T02:29:08;6.40;;;3.10;;
6999;SDS011;3540;53.242;10.408;2023-08-30T02:31:34;4.67;;;3.00;;
6999;SDS011;3540;53.242;10.408;2023-08-30T02:34:00;4.30;;;2.80;;
6999;SDS011;3540;53.242;10.408;2023-08-30T02:36:27;3.07;;;2.77;;
6999;SDS011;3540;53.242;10.408;2023-08-30T02:38:53;3.43;;;3.00;;
6999;SDS011;3540;53.242;10.408;2023-08-30T02:41:18;3.00;;;2.80;;
6999;SDS011;3540;53.242;10.408;2023-08-30T02:43:44;6.23;;;3.00;;
6999;SDS011;3540;53.242;10.408;2023-08-30T02:46:09;4.47;;;2.67;;
6999;SDS011;3540;53.242;10.408;2023-08-30T02:48:35;3.20;;;2.80;;
6999;SDS011;3540;53.242;10.408;2023-08-30T02:51:01;2.93;;;2.70;;
6999;SDS011;3540;53.242;10.408;2023-08-30T02:53:26;3.47;;;2.57;;
6999;SDS011;3540;53.242;10.408;2023-08-30T02:55:52;4.80;;;2.37;;
6999;SDS011;3540;53.242;10.408;2023-08-30T02:58:20;3.00;;;2.70;;
6999;SDS011;3540;53.242;10.408;2023-08-30T03:00:46;4.10;;;2.67;;
6999;SDS011;3540;53.242;10.408;2023-08-30T03:03:12;2.80;;;2.60;;
6999;SDS011;3540;53.242;10.408;2023-08-30T03:05:37;3.27;;;2.73;;
6999;SDS011;3540;53.242;10.408;2023-08-30T03:08:03;2.83;;;2.63;;
6999;SDS011;3540;53.242;10.408;2023-08-30T03:10:29;4.70;;;2.90;;
6999;SDS011;3540;53.242;10.408;2023-08-30T03:12:54;3.83;;;2.93;;
6999;SDS011;3540;53.242;10.408;2023-08-30T03:15:20;7.10;;;2.50;;
6999;SDS011;3540;53.242;10.408;2023-08-30T03:17:45;3.20;;;2.90;;
6999;SDS011;3540;53.242;10.408;2023-08-30T03:20:11;3.37;;;3.07;;
6999;SDS011;3540;53.242;10.408;2023-08-30T03:22:37;4.90;;;3.07;;
6999;SDS011;3540;53.242;10.408;2023-08-30T03:25:02;4.10;;;3.10;;
6999;SDS011;3540;53.242;10.408;2023-08-30T03:27:29;3.50;;;2.90;;
6999;SDS011;3540;53.242;10.408;2023-08-30T03:29:55;3.30;;;2.93;;
6999;SDS011;3540;53.242;10.408;2023-08-30T03:32:21;6.47;;;2.87;;
6999;SDS011;3540;53.242;10.408;2023-08-30T03:34:47;5.07;;;2.90;;
6999;SDS011;3540;53.242;10.408;2023-08-30T03:37:16;3.13;;;2.77;;
6999;SDS011;3540;53.242;10.408;2023-08-30T03:39:41;4.27;;;3.13;;
6999;SDS011;3540;53.242;10.408;2023-08-30T03:42:07;3.10;;;2.77;;
6999;SDS011;3540;53.242;10.408;2023-08-30T03:44:33;4.07;;;2.77;;
6999;SDS011;3540;53.242;10.408;2023-08-30T03:46:59;3.33;;;2.70;;
6999;SDS011;3540;53.242;10.408;2023-08-30T03:49:25;3.63;;;3.00;;
6999;SDS011;3540;53.242;10.408;2023-08-30T03:51:50;3.13;;;2.77;;
6999;SDS011;3540;53.242;10.408;2023-08-30T03:54:16;5.80;;;2.87;;
6999;SDS011;3540;53.242;10.408;2023-08-30T03:56:42;5.17;;;2.70;;
6999;SDS011;3540;53.242;10.408;2023-08-30T03:59:09;2.90;;;2.60;;
6999;SDS011;3540;53.242;10.408;2023-08-30T04:01:34;6.70;;;3.10;;
6999;SDS011;3540;53.242;10.408;2023-08-30T04:04:00;2.83;;;2.63;;
6999;SDS011;3540;53.242;10.408;2023-08-30T04:06:25;3.20;;;2.90;;
6999;SDS011;3540;53.242;10.408;2023-08-30T04:08:51;2.77;;;2.57;;
6999;SDS011;3540;53.242;10.408;2023-08-30T04:11:17;2.93;;;2.63;;
6999;SDS011;3540;53.242;10.408;2023-08-30T04:13:42;2.83;;;2.33;;
6999;SDS011;3540;53.242;10.408;2023-08-30T04:16:08;4.27;;;3.07;;
6999;SDS011;3540;53.242;10.408;2023-08-30T04:18:33;6.20;;;2.93;;
6999;SDS011;3540;53.242;10.408;2023-08-30T04:20:59;4.37;;;2.70;;
6999;SDS011;3540;53.242;10.408;2023-08-30T04:23:27;3.30;;;3.00;;
6999;SDS011;3540;53.242;10.408;2023-08-30T04:25:55;4.13;;;2.53;;
6999;SDS011;3540;53.242;10.408;2023-08-30T04:28:21;4.20;;;3.10;;
6999;SDS011;3540;53.242;10.408;2023-08-30T04:30:47;3.13;;;2.83;;
6999;SDS011;3540;53.242;10.408;2023-08-30T04:33:13;3.37;;;3.00;;
6999;SDS011;3540;53.242;10.408;2023-08-30T04:35:38;6.90;;;3.07;;
6999;SDS011;3540;53.242;10.408;2023-08-30T04:38:04;7.57;;;5.10;;
6999;SDS011;3540;53.242;10.408;2023-08-30T04:40:31;4.97;;;3.97;;
6999;SDS011;3540;53.242;10.408;2023-08-30T04:42:59;8.33;;;3.40;;
6999;SDS011;3540;53.242;10.408;2023-08-30T04:45:25;6.93;;;3.20;;
6999;SDS011;3540;53.242;10.408;2023-08-30T04:47:52;3.50;;;3.10;;
6999;SDS011;3540;53.242;10.408;2023-08-30T04:50:18;3.47;;;3.17;;
6999;SDS011;3540;53.242;10.408;2023-08-30T04:52:44;3.90;;;3.20;;
6999;SDS011;3540;53.242;10.408;2023-08-30T04:55:09;7.17;;;3.53;;
6999;SDS011;3540;53.242;10.408;2023-08-30T04:57:35;5.27;;;3.10;;
6999;SDS011;3540;53.242;10.408;2023-08-30T05:00:01;3.40;;;3.10;;
6999;SDS011;3540;53.242;10.408;2023-08-30T05:02:29;4.77;;;3.33;;
6999;SDS011;3540;53.242;10.408;2023-08-30T05:04:55;3.47;;;3.00;;
6999;SDS011;3540;53.242;10.408;2023-08-30T05:07:21;5.23;;;3.30;;
6999;SDS011;3540;53.242;10.408;2023-08-30T05:09:47;4.53;;;3.47;;
6999;SDS011;3540;53.242;10.408;2023-08-30T05:12:12;2.93;;;2.73;;
6999;SDS011;3540;53.242;10.408;2023-08-30T05:14:38;4.20;;;3.27;;
6999;SDS011;3540;53.242;10.408;2023-08-30T05:17:05;4.77;;;3.37;;
6999;SDS011;3540;53.242;10.408;2023-08-30T05:19:32;4.93;;;3.53;;
6999;SDS011;3540;53.242;10.408;2023-08-30T05:21:57;3.27;;;2.97;;
6999;SDS011;3540;53.242;10.408;2023-08-30T05:24:23;5.63;;;4.00;;
6999;SDS011;3540;53.242;10.408;2023-08-30T05:26:49;4.33;;;3.63;;
6999;SDS011;3540;53.242;10.408;2023-08-30T05:29:15;7.83;;;3.87;;
6999;SDS011;3540;53.242;10.408;2023-08-30T05:31:40;6.83;;;4.00;;
6999;SDS011;3540;53.242;10.408;2023-08-30T05:34:06;4.53;;;3.77;;
6999;SDS011;3540;53.242;10.408;2023-08-30T05:36:32;4.13;;;3.63;;
6999;SDS011;3540;53.242;10.408;2023-08-30T05:38:58;4.67;;;3.83;;
6999;SDS011;3540;53.242;10.408;2023-08-30T05:41:23;4.20;;;3.80;;
6999;SDS011;3540;53.242;10.408;2023-08-30T05:43:49;12.07;;;3.80;;
6999;SDS011;3540;53.242;10.408;2023-08-30T05:46:16;4.13;;;3.70;;
6999;SDS011;3540;53.242;10.408;2023-08-30T05:48:42;6.60;;;3.83;;
6999;SDS011;3540;53.242;10.408;2023-08-30T05:51:08;4.17;;;3.77;;
6999;SDS011;3540;53.242;10.408;2023-08-30T05:53:34;6.43;;;4.40;;
6999;SDS011;3540;53.242;10.408;2023-08-30T05:55:59;7.23;;;4.83;;
6999;SDS011;3540;53.242;10.408;2023-08-30T05:58:25;6.87;;;5.10;;
6999;SDS011;3540;53.242;10.408;2023-08-30T06:00:51;7.23;;;4.70;;
6999;SDS011;3540;53.242;10.408;2023-08-30T06:03:16;5.83;;;4.80;;
6999;SDS011;3540;53.242;10.408;2023-08-30T06:05:42;6.70;;;5.00;;
6999;SDS011;3540;53.242;10.408;2023-08-30T06:08:08;7.03;;;4.93;;
6999;SDS011;3540;53.242;10.408;2023-08-30T06:10:34;6.63;;;5.27;;
6999;SDS011;3540;53.242;10.408;2023-08-30T06:13:01;7.13;;;5.47;;
6999;SDS011;3540;53.242;10.408;2023-08-30T06:15:27;6.57;;;5.30;;
6999;SDS011;3540;53.242;10.408;2023-08-30T06:17:53;6.90;;;5.60;;
6999;SDS011;3540;53.242;10.408;2023-08-30T06:20:19;6.07;;;5.20;;
6999;SDS011;3540;53.242;10.408;2023-08-30T06:22:45;8.10;;;6.10;;
6999;SDS011;3540;53.242;10.408;2023-08-30T06:25:10;8.47;;;5.40;;
6999;SDS011;3540;53.242;10.408;2023-08-30T06:27:41;6.33;;;4.90;;
6999;SDS011;3540;53.242;10.408;2023-08-30T06:30:08;7.27;;;4.77;;
6999;SDS011;3540;53.242;10.408;2023-08-30T06:32:35;6.70;;;4.23;;
6999;SDS011;3540;53.242;10.408;2023-08-30T06:35:01;4.87;;;4.30;;
6999;SDS011;3540;53.242;10.408;2023-08-30T06:37:26;5.20;;;4.70;;
6999;SDS011;3540;53.242;10.408;2023-08-30T06:39:55;8.60;;;4.43;;
6999;SDS011;3540;53.242;10.408;2023-08-30T06:42:30;5.60;;;4.37;;
6999;SDS011;3540;53.242;10.408;2023-08-30T06:44:55;4.87;;;3.50;;
6999;SDS011;3540;53.242;10.408;2023-08-30T06:47:21;5.57;;;4.43;;
6999;SDS011;3540;53.242;10.408;2023-08-30T06:49:47;8.47;;;4.60;;
6999;SDS011;3540;53.242;10.408;2023-08-30T06:52:12;5.67;;;4.20;;
6999;SDS011;3540;53.242;10.408;2023-08-30T06:54:38;4.23;;;3.77;;
6999;SDS011;3540;53.242;10.408;2023-08-30T06:57:04;6.23;;;4.13;;
6999;SDS011;3540;53.242;10.408;2023-08-30T06:59:31;5.13;;;3.83;;
6999;SDS011;3540;53.242;10.408;2023-08-30T07:01:57;5.60;;;4.13;;
6999;SDS011;3540;53.242;10.408;2023-08-30T07:04:23;6.33;;;3.80;;
6999;SDS011;3540;53.242;10.408;2023-08-30T07:06:48;7.50;;;3.93;;
6999;SDS011;3540;53.242;10.408;2023-08-30T07:09:15;4.97;;;3.60;;
6999;SDS011;3540;53.242;10.408;2023-08-30T07:11:42;3.73;;;3.17;;
6999;SDS011;3540;53.242;10.408;2023-08-30T07:14:10;4.87;;;3.93;;
6999;SDS011;3540;53.242;10.408;2023-08-30T07:16:37;4.10;;;3.50;;
6999;SDS011;3540;53.242;10.408;2023-08-30T07:19:03;6.03;;;4.00;;
6999;SDS011;3540;53.242;10.408;2023-08-30T07:21:29;5.43;;;3.30;;
6999;SDS011;3540;53.242;10.408;2023-08-30T07:23:54;4.40;;;3.97;;
6999;SDS011;3540;53.242;10.408;2023-08-30T07:26:20;3.67;;;3.37;;
6999;SDS011;3540;53.242;10.408;2023-08-30T07:28:46;5.50;;;3.40;;
6999;SDS011;3540;53.242;10.408;2023-08-30T07:31:11;3.67;;;3.37;;
6999;SDS011;3540;53.242;10.408;2023-08-30T07:33:43;7.50;;;3.30;;
6999;SDS011;3540;53.242;10.408;2023-08-30T07:36:09;5.47;;;3.57;;
6999;SDS011;3540;53.242;10.408;2023-08-30T07:38:35;3.50;;;3.10;;
6999;SDS011;3540;53.242;10.408;2023-08-30T07:41:00;6.20;;;3.30;;
6999;SDS011;3540;53.242;10.408;2023-08-30T07:43:27;3.40;;;3.10;;
6999;SDS011;3540;53.242;10.408;2023-08-30T07:45:52;5.43;;;3.23;;
6999;SDS011;3540;53.242;10.408;2023-08-30T07:48:18;4.03;;;2.97;;
6999;SDS011;3540;53.242;10.408;2023-08-30T07:50:44;5.23;;;3.63;;
6999;SDS011;3540;53.242;10.408;2023-08-30T07:53:09;4.00;;;3.43;;
6999;SDS011;3540;53.242;10.408;2023-08-30T07:55:35;5.27;;;3.87;;
6999;SDS011;3540;53.242;10.408;2023-08-30T07:58:01;4.20;;;3.63;;
6999;SDS011;3540;53.242;10.408;2023-08-30T08:00:28;5.77;;;4.10;;
6999;SDS011;3540;53.242;10.408;2023-08-30T08:02:54;5.80;;;3.93;;
6999;SDS011;3540;53.242;10.408;2023-08-30T08:05:20;5.83;;;3.57;;
6999;SDS011;3540;53.242;10.408;2023-08-30T08:07:50;4.87;;;3.83;;
6999;SDS011;3540;53.242;10.408;2023-08-30T08:10:16;5.23;;;4.60;;
6999;SDS011;3540;53.242;10.408;2023-08-30T08:12:42;8.53;;;4.30;;
6999;SDS011;3540;53.242;10.408;2023-08-30T08:15:08;4.30;;;3.67;;
6999;SDS011;3540;53.242;10.408;2023-08-30T08:17:34;6.00;;;4.60;;
6999;SDS011;3540;53.242;10.408;2023-08-30T08:20:00;9.50;;;4.13;;
6999;SDS011;3540;53.242;10.408;2023-08-30T08:22:26;5.93;;;4.13;;
6999;SDS011;3540;53.242;10.408;2023-08-30T08:24:51;7.50;;;4.47;;
6999;SDS011;3540;53.242;10.408;2023-08-30T08:27:18;6.10;;;5.50;;
6999;SDS011;3540;53.242;10.408;2023-08-30T08:29:44;6.03;;;4.70;;
6999;SDS011;3540;53.242;10.408;2023-08-30T08:32:10;7.30;;;4.80;;
6999;SDS011;3540;53.242;10.408;2023-08-30T08:34:35;5.97;;;4.30;;
6999;SDS011;3540;53.242;10.408;2023-08-30T08:37:01;5.87;;;4.30;;
6999;SDS011;3540;53.242;10.408;2023-08-30T08:39:26;6.00;;;4.00;;
6999;SDS011;3540;53.242;10.408;2023-08-30T08:41:52;6.77;;;3.80;;
6999;SDS011;3540;53.242;10.408;2023-08-30T08:44:19;5.70;;;4.10;;
6999;SDS011;3540;53.242;10.408;2023-08-30T08:46:47;5.80;;;4.67;;
6999;SDS011;3540;53.242;10.408;2023-08-30T08:49:15;5.70;;;4.10;;
6999;SDS011;3540;53.242;10.408;2023-08-30T08:51:41;7.50;;;4.53;;
6999;SDS011;3540;53.242;10.408;2023-08-30T08:54:08;5.17;;;4.23;;
6999;SDS011;3540;53.242;10.408;2023-08-30T08:56:35;4.87;;;4.30;;
6999;SDS011;3540;53.242;10.408;2023-08-30T08:59:01;8.10;;;4.40;;
6999;SDS011;3540;53.242;10.408;2023-08-30T09:01:28;5.67;;;4.80;;
6999;SDS011;3540;53.242;10.408;2023-08-30T09:03:53;8.80;;;4.70;;
6999;SDS011;3540;53.242;10.408;2023-08-30T09:06:20;5.30;;;4.23;;
6999;SDS011;3540;53.242;10.408;2023-08-30T09:08:46;5.83;;;4.73;;
6999;SDS011;3540;53.242;10.408;2023-08-30T09:11:12;4.70;;;4.07;;
6999;SDS011;3540;53.242;10.408;2023-08-30T09:13:38;5.00;;;4.50;;
6999;SDS011;3540;53.242;10.408;2023-08-30T09:16:11;5.47;;;4.77;;
6999;SDS011;3540;53.242;10.408;2023-08-30T09:18:38;8.80;;;4.47;;
6999;SDS011;3540;53.242;10.408;2023-08-30T09:21:05;5.00;;;4.30;;
6999;SDS011;3540;53.242;10.408;2023-08-30T09:23:31;5.37;;;4.53;;
6999;SDS011;3540;53.242;10.408;2023-08-30T09:25:59;5.60;;;4.80;;
6999;SDS011;3540;53.242;10.408;2023-08-30T09:28:24;4.63;;;4.00;;
6999;SDS011;3540;53.242;10.408;2023-08-30T09:30:50;8.43;;;4.20;;
6999;SDS011;3540;53.242;10.408;2023-08-30T09:33:38;4.47;;;4.03;;
6999;SDS011;3540;53.242;10.408;2023-08-30T09:36:02;3.97;;;3.67;;
6999;SDS011;3540;53.242;10.408;2023-08-30T09:38:36;10.13;;;3.40;;
6999;SDS011;3540;53.242;10.408;2023-08-30T09:41:02;4.95;;;3.83;;
6999;SDS011;3540;53.242;10.408;2023-08-30T09:43:29;5.27;;;3.83;;
6999;SDS011;3540;53.242;10.408;2023-08-30T09:45:55;5.10;;;3.78;;
6999;SDS011;3540;53.242;10.408;2023-08-30T09:48:22;3.60;;;3.30;;
6999;SDS011;3540;53.242;10.408;2023-08-30T09:50:53;5.40;;;4.00;;
6999;SDS011;3540;53.242;10.408;2023-08-30T09:53:20;4.80;;;3.83;;
6999;SDS011;3540;53.242;10.408;2023-08-30T09:55:50;4.90;;;4.30;;
6999;SDS011;3540;53.242;10.408;2023-08-30T09:58:17;4.82;;;3.70;;
6999;SDS011;3540;53.242;10.408;2023-08-30T10:00:45;8.05;;;4.18;;
6999;SDS011;3540;53.242;10.408;2023-08-30T10:03:11;5.25;;;4.10;;
6999;SDS011;3540;53.242;10.408;2023-08-30T10:05:37;10.50;;;4.50;;
6999;SDS011;3540;53.242;10.408;2023-08-30T10:08:06;8.30;;;3.80;;
6999;SDS011;3540;53.242;10.408;2023-08-30T10:10:34;5.32;;;3.90;;
6999;SDS011;3540;53.242;10.408;2023-08-30T10:13:01;6.47;;;3.70;;
6999;SDS011;3540;53.242;10.408;2023-08-30T10:15:27;5.93;;;4.13;;
6999;SDS011;3540;53.242;10.408;2023-08-30T10:17:55;5.95;;;4.35;;
6999;SDS011;3540;53.242;10.408;2023-08-30T10:20:23;5.60;;;4.30;;
6999;SDS011;3540;53.242;10.408;2023-08-30T10:22:50;5.78;;;4.00;;
6999;SDS011;3540;53.242;10.408;2023-08-30T10:25:19;5.95;;;4.63;;
6999;SDS011;3540;53.242;10.408;2023-08-30T10:27:49;7.78;;;4.60;;
6999;SDS011;3540;53.242;10.408;2023-08-30T10:30:15;5.28;;;4.60;;
6999;SDS011;3540;53.242;10.408;2023-08-30T10:32:43;6.47;;;5.10;;
6999;SDS011;3540;53.242;10.408;2023-08-30T10:35:15;7.20;;;5.10;;
6999;SDS011;3540;53.242;10.408;2023-08-30T10:37:56;7.45;;;5.20;;
6999;SDS011;3540;53.242;10.408;2023-08-30T10:40:24;8.43;;;6.70;;
6999;SDS011;3540;53.242;10.408;2023-08-30T10:43:02;7.70;;;6.32;;
6999;SDS011;3540;53.242;10.408;2023-08-30T10:45:29;7.18;;;6.13;;
6999;SDS011;3540;53.242;10.408;2023-08-30T10:47:56;8.07;;;5.60;;
6999;SDS011;3540;53.242;10.408;2023-08-30T10:50:29;8.02;;;6.75;;
6999;SDS011;3540;53.242;10.408;2023-08-30T10:52:56;7.25;;;5.45;;
6999;SDS011;3540;53.242;10.408;2023-08-30T10:55:23;5.95;;;5.15;;
6999;SDS011;3540;53.242;10.408;2023-08-30T10:57:57;7.15;;;5.95;;
6999;SDS011;3540;53.242;10.408;2023-08-30T11:00:28;6.38;;;5.32;;
6999;SDS011;3540;53.242;10.408;2023-08-30T11:02:55;9.02;;;5.88;;
6999;SDS011;3540;53.242;10.408;2023-08-30T11:05:22;5.60;;;5.10;;
6999;SDS011;3540;53.242;10.408;2023-08-30T11:07:49;6.03;;;5.30;;
6999;SDS011;3540;53.242;10.408;2023-08-30T11:10:16;6.05;;;5.43;;
6999;SDS011;3540;53.242;10.408;2023-08-30T11:12:42;9.18;;;5.60;;
6999;SDS011;3540;53.242;10.408;2023-08-30T11:15:09;5.50;;;5.00;;
6999;SDS011;3540;53.242;10.408;2023-08-30T11:17:36;8.25;;;5.72;;
6999;SDS011;3540;53.242;10.408;2023-08-30T11:20:05;6.20;;;5.60;;
6999;SDS011;3540;53.242;10.408;2023-08-30T11:22:45;8.45;;;4.93;;
6999;SDS011;3540;53.242;10.408;2023-08-30T11:25:11;6.17;;;4.80;;
6999;SDS011;3540;53.242;10.408;2023-08-30T11:27:38;6.72;;;4.82;;
6999;SDS011;3540;53.242;10.408;2023-08-30T11:30:05;5.75;;;4.30;;
6999;SDS011;3540;53.242;10.408;2023-08-30T11:32:34;5.75;;;4.35;;
6999;SDS011;3540;53.242;10.408;2023-08-30T11:35:01;4.97;;;4.00;;
6999;SDS011;3540;53.242;10.408;2023-08-30T11:37:27;6.43;;;4.00;;
6999;SDS011;3540;53.242;10.408;2023-08-30T11:39:56;5.82;;;3.63;;
6999;SDS011;3540;53.242;10.408;2023-08-30T11:42:22;4.82;;;3.92;;
6999;SDS011;3540;53.242;10.408;2023-08-30T11:44:49;7.38;;;3.53;;
6999;SDS011;3540;53.242;10.408;2023-08-30T11:47:20;5.65;;;3.67;;
6999;SDS011;3540;53.242;10.408;2023-08-30T11:49:49;7.00;;;3.90;;
6999;SDS011;3540;53.242;10.408;2023-08-30T11:52:17;6.07;;;3.60;;
6999;SDS011;3540;53.242;10.408;2023-08-30T11:54:45;5.07;;;3.57;;
6999;SDS011;3540;53.242;10.408;2023-08-30T11:57:15;5.47;;;3.93;;
6999;SDS011;3540;53.242;10.408;2023-08-30T11:59:40;5.43;;;4.20;;
6999;SDS011;3540;53.242;10.408;2023-08-30T12:02:06;8.83;;;4.13;;
6999;SDS011;3540;53.242;10.408;2023-08-30T12:04:32;5.63;;;4.00;;
6999;SDS011;3540;53.242;10.408;2023-08-30T12:07:04;5.07;;;3.60;;
6999;SDS011;3540;53.242;10.408;2023-08-30T12:09:30;5.77;;;3.70;;
6999;SDS011;3540;53.242;10.408;2023-08-30T12:12:09;5.33;;;3.40;;
6999;SDS011;3540;53.242;10.408;2023-08-30T12:14:39;8.10;;;2.93;;
6999;SDS011;3540;53.242;10.408;2023-08-30T12:17:04;3.93;;;3.00;;
6999;SDS011;3540;53.242;10.408;2023-08-30T12:19:33;6.57;;;3.40;;
6999;SDS011;3540;53.242;10.408;2023-08-30T12:22:05;3.63;;;3.27;;
6999;SDS011;3540;53.242;10.408;2023-08-30T12:24:50;5.83;;;3.20;;
6999;SDS011;3540;53.242;10.408;2023-08-30T12:27:16;5.03;;;3.77;;
6999;SDS011;3540;53.242;10.408;2023-08-30T12:29:41;4.83;;;3.20;;
6999;SDS011;3540;53.242;10.408;2023-08-30T12:32:07;6.57;;;3.40;;
6999;SDS011;3540;53.242;10.408;2023-08-30T12:34:33;3.90;;;3.07;;
6999;SDS011;3540;53.242;10.408;2023-08-30T12:36:59;7.07;;;3.10;;
6999;SDS011;3540;53.242;10.408;2023-08-30T12:39:25;7.10;;;3.42;;
6999;SDS011;3540;53.242;10.408;2023-08-30T12:41:50;3.53;;;3.10;;
6999;SDS011;3540;53.242;10.408;2023-08-30T12:44:16;5.50;;;3.20;;
6999;SDS011;3540;53.242;10.408;2023-08-30T12:46:42;3.40;;;2.83;;
6999;SDS011;3540;53.242;10.408;2023-08-30T12:49:07;3.63;;;2.75;;
6999;SDS011;3540;53.242;10.408;2023-08-30T12:51:33;3.87;;;2.87;;
6999;SDS011;3540;53.242;10.408;2023-08-30T12:53:58;7.45;;;3.33;;
6999;SDS011;3540;53.242;10.408;2023-08-30T12:56:24;5.00;;;3.00;;
6999;SDS011;3540;53.242;10.408;2023-08-30T12:58:50;5.13;;;2.70;;
6999;SDS011;3540;53.242;10.408;2023-08-30T13:01:16;6.45;;;3.20;;
6999;SDS011;3540;53.242;10.408;2023-08-30T13:03:42;3.97;;;2.58;;
6999;SDS011;3540;53.242;10.408;2023-08-30T13:06:07;4.53;;;3.35;;
6999;SDS011;3540;53.242;10.408;2023-08-30T13:08:33;3.50;;;2.83;;
6999;SDS011;3540;53.242;10.408;2023-08-30T13:10:59;3.40;;;2.90;;
6999;SDS011;3540;53.242;10.408;2023-08-30T13:13:25;10.98;;;3.42;;
6999;SDS011;3540;53.242;10.408;2023-08-30T13:15:51;3.88;;;2.58;;
6999;SDS011;3540;53.242;10.408;2023-08-30T13:18:16;5.60;;;2.50;;
6999;SDS011;3540;53.242;10.408;2023-08-30T13:20:42;5.78;;;3.08;;
6999;SDS011;3540;53.242;10.408;2023-08-30T13:23:08;5.80;;;2.92;;
6999;SDS011;3540;53.242;10.408;2023-08-30T13:25:37;5.45;;;3.30;;
6999;SDS011;3540;53.242;10.408;2023-08-30T13:28:05;3.80;;;3.05;;
6999;SDS011;3540;53.242;10.408;2023-08-30T13:30:30;6.18;;;3.80;;
6999;SDS011;3540;53.242;10.408;2023-08-30T13:32:56;5.28;;;3.70;;
6999;SDS011;3540;53.242;10.408;2023-08-30T13:35:21;3.70;;;3.30;;
6999;SDS011;3540;53.242;10.408;2023-08-30T13:37:47;5.25;;;3.70;;
6999;SDS011;3540;53.242;10.408;2023-08-30T13:40:13;4.43;;;3.10;;
6999;SDS011;3540;53.242;10.408;2023-08-30T13:42:38;5.15;;;3.70;;
6999;SDS011;3540;53.242;10.408;2023-08-30T13:45:04;6.13;;;3.63;;
6999;SDS011;3540;53.242;10.408;2023-08-30T13:47:31;4.30;;;3.65;;
6999;SDS011;3540;53.242;10.408;2023-08-30T13:49:57;3.78;;;3.03;;
6999;SDS011;3540;53.242;10.408;2023-08-30T13:52:24;3.63;;;3.10;;
6999;SDS011;3540;53.242;10.408;2023-08-30T13:54:50;5.13;;;3.50;;
6999;SDS011;3540;53.242;10.408;2023-08-30T13:57:16;5.22;;;4.50;;
6999;SDS011;3540;53.242;10.408;2023-08-30T13:59:42;4.57;;;3.63;;
6999;SDS011;3540;53.242;10.408;2023-08-30T14:02:08;7.35;;;3.70;;
6999;SDS011;3540;53.242;10.408;2023-08-30T14:04:33;5.05;;;3.55;;
6999;SDS011;3540;53.242;10.408;2023-08-30T14:07:02;5.28;;;3.70;;
6999;SDS011;3540;53.242;10.408;2023-08-30T14:09:28;5.43;;;3.85;;
6999;SDS011;3540;53.242;10.408;2023-08-30T14:11:54;6.25;;;4.13;;
6999;SDS011;3540;53.242;10.408;2023-08-30T14:14:20;5.28;;;3.97;;
6999;SDS011;3540;53.242;10.408;2023-08-30T14:16:46;4.85;;;4.35;;
6999;SDS011;3540;53.242;10.408;2023-08-30T14:19:12;8.07;;;3.97;;
6999;SDS011;3540;53.242;10.408;2023-08-30T14:21:37;5.80;;;3.70;;
6999;SDS011;3540;53.242;10.408;2023-08-30T14:24:03;7.03;;;3.60;;
6999;SDS011;3540;53.242;10.408;2023-08-30T14:26:29;4.72;;;3.55;;
6999;SDS011;3540;53.242;10.408;2023-08-30T14:28:55;3.70;;;3.25;;
6999;SDS011;3540;53.242;10.408;2023-08-30T14:31:21;5.38;;;3.20;;
6999;SDS011;3540;53.242;10.408;2023-08-30T14:33:46;4.47;;;2.80;;
6999;SDS011;3540;53.242;10.408;2023-08-30T14:36:12;5.53;;;3.28;;
6999;SDS011;3540;53.242;10.408;2023-08-30T14:38:39;4.25;;;3.30;;
6999;SDS011;3540;53.242;10.408;2023-08-30T14:41:06;3.78;;;2.90;;
6999;SDS011;3540;53.242;10.408;2023-08-30T14:43:32;3.75;;;3.20;;
6999;SDS011;3540;53.242;10.408;2023-08-30T14:46:02;4.28;;;3.40;;
6999;SDS011;3540;53.242;10.408;2023-08-30T14:48:29;4.15;;;3.58;;
6999;SDS011;3540;53.242;10.408;2023-08-30T14:50:56;3.67;;;3.25;;
6999;SDS011;3540;53.242;10.408;2023-08-30T14:53:23;4.05;;;2.90;;
6999;SDS011;3540;53.242;10.408;2023-08-30T14:55:48;8.00;;;3.40;;
6999;SDS011;3540;53.242;10.408;2023-08-30T14:58:14;6.07;;;3.50;;
6999;SDS011;3540;53.242;10.408;2023-08-30T15:00:40;3.50;;;2.80;;
6999;SDS011;3540;53.242;10.408;2023-08-30T15:03:05;4.32;;;3.30;;
6999;SDS011;3540;53.242;10.408;2023-08-30T15:05:31;4.85;;;3.50;;